createdAt,value
2023-10-30T00:00:49.394Z,99415.66
2023-10-30T00:03:37.602Z,99416.67
2023-10-30T00:06:05.964Z,99417.15
2023-10-30T00:08:34.307Z,99410.96
2023-10-30T00:11:02.484Z,99412.50
2023-10-30T00:13:30.558Z,99418.84
2023-10-30T00:15:58.722Z,99418.27
2023-10-30T00:18:27.127Z,99416.25
2023-10-30T00:20:55.686Z,99415.52
2023-10-30T00:23:24.058Z,99414.77
2023-10-30T00:25:53.193Z,99415.44
2023-10-30T00:28:21.328Z,99415.73
2023-10-30T00:30:49.682Z,99413.42
2023-10-30T00:33:17.991Z,99418.70
2023-10-30T00:35:46.156Z,99418.02
2023-10-30T00:38:14.332Z,99417.41
2023-10-30T00:40:42.504Z,99421.50
2023-10-30T00:43:11.328Z,99422.55
2023-10-30T00:45:40.070Z,99420.21
2023-10-30T00:48:08.443Z,99413.32
2023-10-30T00:50:37.043Z,99408.46
2023-10-30T00:53:05.409Z,99408.99
2023-10-30T00:55:38.197Z,99407.30
2023-10-30T00:58:08.915Z,99412.05
2023-10-30T01:00:37.156Z,99415.27
2023-10-30T01:03:05.744Z,99417.36
2023-10-30T01:05:35.382Z,99411.74
2023-10-30T01:08:09.819Z,99406.41
2023-10-30T01:10:38.390Z,99405.45
2023-10-30T01:13:06.574Z,99402.12
2023-10-30T01:15:36.179Z,99395.14
2023-10-30T01:18:04.803Z,99405.33
2023-10-30T01:20:33.844Z,99411.17
2023-10-30T01:23:01.913Z,99415.19
2023-10-30T01:25:30.589Z,99414.84
2023-10-30T01:27:58.866Z,99417.63
2023-10-30T01:30:27.108Z,99433.38
2023-10-30T01:32:55.468Z,99427.70
2023-10-30T01:35:23.735Z,99420.47
2023-10-30T01:37:52.067Z,99423.35
2023-10-30T01:40:20.141Z,99423.05
2023-10-30T01:42:48.412Z,99413.87
2023-10-30T01:45:17.336Z,99402.14
2023-10-30T01:47:45.513Z,99401.02
2023-10-30T01:50:15.595Z,99401.64
2023-10-30T01:52:44.686Z,99403.50
2023-10-30T01:55:13.378Z,99391.96
2023-10-30T01:57:41.580Z,99397.89
2023-10-30T02:00:11.151Z,99410.93
2023-10-30T02:02:43.481Z,99412.38
2023-10-30T02:05:11.903Z,99412.60
2023-10-30T02:07:40.072Z,99416.52
2023-10-30T02:10:08.790Z,99407.34
2023-10-30T02:12:37.283Z,99406.13
2023-10-30T02:15:06.687Z,99402.25
2023-10-30T02:17:35.135Z,99408.16
2023-10-30T02:20:03.287Z,99400.30
2023-10-30T02:22:31.357Z,99406.58
2023-10-30T02:25:00.454Z,99421.25
2023-10-30T02:27:28.747Z,99437.09
2023-10-30T02:29:57.011Z,99436.09
2023-10-30T02:32:25.188Z,99435.80
2023-10-30T02:34:53.959Z,99436.75
2023-10-30T02:37:22.034Z,99445.40
2023-10-30T02:39:50.389Z,99444.55
2023-10-30T02:42:18.672Z,99454.78
2023-10-30T02:44:46.863Z,99452.22
2023-10-30T02:47:15.027Z,99440.40
2023-10-30T02:49:43.407Z,99444.16
2023-10-30T02:52:11.585Z,99457.14
2023-10-30T02:54:39.795Z,99473.11
2023-10-30T02:57:08.459Z,99473.58
2023-10-30T02:59:36.711Z,99466.19
2023-10-30T03:02:04.981Z,99468.90
2023-10-30T03:04:33.770Z,99468.89
2023-10-30T03:07:02.453Z,99472.23
2023-10-30T03:09:33.135Z,99483.95
2023-10-30T03:12:01.358Z,99498.30
2023-10-30T03:14:29.535Z,99492.70
2023-10-30T03:16:57.598Z,99501.40
2023-10-30T03:19:25.679Z,99494.88
2023-10-30T03:21:53.843Z,99486.29
2023-10-30T03:24:21.948Z,99487.42
2023-10-30T03:26:52.032Z,99491.28
2023-10-30T03:29:20.304Z,99499.08
2023-10-30T03:31:48.738Z,99498.52
2023-10-30T03:34:20.193Z,99505.45
2023-10-30T03:36:48.567Z,99505.39
2023-10-30T03:39:16.801Z,99514.46
2023-10-30T03:41:46.050Z,99523.59
2023-10-30T03:44:14.256Z,99531.70
2023-10-30T03:46:42.441Z,99523.81
2023-10-30T03:49:12.135Z,99534.61
2023-10-30T03:51:40.357Z,99531.40
2023-10-30T03:54:09.737Z,99535.85
2023-10-30T03:56:37.893Z,99545.96
2023-10-30T03:59:06.058Z,99544.27
2023-10-30T04:01:34.565Z,99543.50
2023-10-30T04:04:04.274Z,99553.98
2023-10-30T04:06:32.591Z,99558.52
2023-10-30T04:09:00.895Z,99558.73
2023-10-30T04:11:29.069Z,99560.88
2023-10-30T04:13:57.144Z,99548.19
2023-10-30T04:16:25.540Z,99556.67
2023-10-30T04:18:53.687Z,99558.59
2023-10-30T04:21:21.920Z,99558.29
2023-10-30T04:23:50.134Z,99558.55
2023-10-30T04:26:20.659Z,99555.70
2023-10-30T04:28:49.142Z,99552.06
2023-10-30T04:31:17.344Z,99530.58
2023-10-30T04:33:45.447Z,99524.82
2023-10-30T04:36:14.682Z,99531.27
2023-10-30T04:38:42.881Z,99546.80
2023-10-30T04:41:11.030Z,99552.81
2023-10-30T04:43:39.100Z,99546.45
2023-10-30T04:46:08.420Z,99546.04
2023-10-30T04:48:37.311Z,99553.79
2023-10-30T04:51:05.565Z,99552.93
2023-10-30T04:53:33.673Z,99559.63
2023-10-30T04:56:03.429Z,99562.63
2023-10-30T04:58:31.621Z,99570.98
2023-10-30T05:01:00.409Z,99570.40
2023-10-30T05:03:28.694Z,99570.45
2023-10-30T05:05:57.058Z,99570.51
2023-10-30T05:08:26.253Z,99580.60
2023-10-30T05:10:54.320Z,99584.20
2023-10-30T05:13:22.391Z,99586.56
2023-10-30T05:15:50.601Z,99588.41
2023-10-30T05:18:23.600Z,99588.17
2023-10-30T05:20:52.640Z,99583.88
2023-10-30T05:23:20.917Z,99577.54
2023-10-30T05:25:49.089Z,99581.11
2023-10-30T05:28:17.544Z,99578.56
2023-10-30T05:30:45.928Z,99589.11
2023-10-30T05:33:14.233Z,99590.97
2023-10-30T05:35:42.393Z,99588.39
2023-10-30T05:38:10.464Z,99590.23
2023-10-30T05:40:39.356Z,99589.15
2023-10-30T05:43:07.532Z,99585.77
2023-10-30T05:45:35.665Z,99578.58
2023-10-30T05:48:04.076Z,99580.33
2023-10-30T05:50:32.611Z,99580.29
2023-10-30T05:53:00.828Z,99577.49
2023-10-30T05:55:29.314Z,99574.06
2023-10-30T05:57:58.307Z,99572.35
2023-10-30T06:00:26.642Z,99568.59
2023-10-30T06:02:54.991Z,99574.42
2023-10-30T06:05:23.595Z,99571.13
2023-10-30T06:07:51.709Z,99567.67
2023-10-30T06:10:22.347Z,99548.30
2023-10-30T06:12:52.040Z,99545.18
2023-10-30T06:15:20.258Z,99543.10
2023-10-30T06:17:48.433Z,99553.35
2023-10-30T06:20:16.664Z,99555.90
2023-10-30T06:22:44.957Z,99549.91
2023-10-30T06:25:13.015Z,99544.58
2023-10-30T06:27:42.654Z,99552.48
2023-10-30T06:30:14.176Z,99556.47
2023-10-30T06:32:42.720Z,99565.36
2023-10-30T06:35:11.654Z,99568.20
2023-10-30T06:37:39.814Z,99559.67
2023-10-30T06:40:08.898Z,99553.66
2023-10-30T06:42:37.401Z,99555.85
2023-10-30T06:45:06.516Z,99552.84
2023-10-30T06:47:34.774Z,99566.25
2023-10-30T06:50:04.109Z,99571.94
2023-10-30T06:52:32.433Z,99579.65
2023-10-30T06:55:01.594Z,99590.20
2023-10-30T06:57:30.053Z,99598.82
2023-10-30T06:59:59.001Z,99608.65
2023-10-30T07:02:27.318Z,99616.78
2023-10-30T07:04:55.657Z,99619.47
2023-10-30T07:07:23.828Z,99615.33
2023-10-30T07:09:51.925Z,99619.89
2023-10-30T07:12:20.207Z,99619.90
2023-10-30T07:14:48.626Z,99619.25
2023-10-30T07:17:17.290Z,99617.88
2023-10-30T07:19:45.506Z,99628.20
2023-10-30T07:22:13.876Z,99633.95
2023-10-30T07:24:42.109Z,99634.39
2023-10-30T07:27:10.332Z,99636.95
2023-10-30T07:29:38.399Z,99633.73
2023-10-30T07:32:06.891Z,99628.60
2023-10-30T07:34:34.958Z,99623.34
2023-10-30T07:37:03.119Z,99624.35
2023-10-30T07:39:31.535Z,99624.47
2023-10-30T07:41:59.875Z,99623.55
2023-10-30T07:44:28.358Z,99628.95
2023-10-30T07:46:56.464Z,99642.12
2023-10-30T07:49:24.800Z,99649.67
2023-10-30T07:51:53.111Z,99652.15
2023-10-30T07:54:21.460Z,99652.55
2023-10-30T07:56:49.725Z,99656.45
2023-10-30T07:59:18.214Z,99656.77
2023-10-30T08:01:46.957Z,99658.38
2023-10-30T08:04:15.398Z,99664.89
2023-10-30T08:06:44.336Z,99667.13
2023-10-30T08:09:13.576Z,99671.81
2023-10-30T08:11:41.935Z,99670.55
2023-10-30T08:14:10.124Z,99659.80
2023-10-30T08:16:38.308Z,99659.11
2023-10-30T08:19:06.460Z,99657.64
2023-10-30T08:21:34.771Z,99657.38
2023-10-30T08:24:03.108Z,99651.27
2023-10-30T08:26:31.490Z,99650.90
2023-10-30T08:28:59.662Z,99655.84
2023-10-30T08:31:28.182Z,99656.76
2023-10-30T08:33:58.792Z,99651.84
2023-10-30T08:36:27.188Z,99651.59
2023-10-30T08:38:55.838Z,99662.15
2023-10-30T08:41:25.367Z,99670.77
2023-10-30T08:43:54.289Z,99663.78
2023-10-30T08:46:22.666Z,99669.77
2023-10-30T08:48:50.991Z,99674.42
2023-10-30T08:51:19.281Z,99675.27
2023-10-30T08:53:47.532Z,99676.56
2023-10-30T08:56:16.007Z,99676.56
2023-10-30T08:58:44.698Z,99677.23
2023-10-30T09:01:12.784Z,99679.29
2023-10-30T09:03:42.916Z,99684.14
2023-10-30T09:06:11.516Z,99687.19
2023-10-30T09:08:39.836Z,99688.44
2023-10-30T09:11:08.009Z,99698.02
2023-10-30T09:13:36.182Z,99701.14
2023-10-30T09:16:05.840Z,99701.89
2023-10-30T09:18:34.073Z,99706.52
2023-10-30T09:21:02.546Z,99703.86
2023-10-30T09:23:30.919Z,99704.25
2023-10-30T09:25:58.988Z,99706.23
2023-10-30T09:28:27.288Z,99709.06
2023-10-30T09:30:55.446Z,99704.64
2023-10-30T09:33:23.867Z,99693.34
2023-10-30T09:35:52.197Z,99683.39
2023-10-30T09:38:20.468Z,99684.52
2023-10-30T09:40:58.468Z,99684.83
2023-10-30T09:43:30.052Z,99683.58
2023-10-30T09:46:00.322Z,99696.30
2023-10-30T09:48:30.152Z,99689.60
2023-10-30T09:51:00.064Z,99685.45
2023-10-30T09:53:29.174Z,99684.76
2023-10-30T09:55:57.740Z,99682.95
2023-10-30T09:58:25.918Z,99694.14
2023-10-30T10:00:54.236Z,99686.10
2023-10-30T10:03:23.208Z,99685.48
2023-10-30T10:05:56.583Z,99689.89
2023-10-30T10:08:25.877Z,99690.48
2023-10-30T10:11:04.186Z,99681.60
2023-10-30T10:13:34.800Z,99673.33
2023-10-30T10:16:03.442Z,99670.11
2023-10-30T10:18:36.344Z,99669.08
2023-10-30T10:21:13.273Z,99661.71
2023-10-30T10:23:41.474Z,99661.34
2023-10-30T10:26:16.463Z,99656.81
2023-10-30T10:28:47.656Z,99652.16
2023-10-30T10:31:16.299Z,99648.14
2023-10-30T10:33:45.674Z,99647.36
2023-10-30T10:36:14.912Z,99637.23
2023-10-30T10:38:57.816Z,99640.77
2023-10-30T10:41:27.309Z,99634.05
2023-10-30T10:43:56.973Z,99628.23
2023-10-30T10:46:25.304Z,99628.38
2023-10-30T10:48:53.671Z,99627.65
2023-10-30T10:51:35.652Z,99638.30
2023-10-30T10:54:08.931Z,99640.33
2023-10-30T10:56:39.692Z,99642.09
2023-10-30T10:59:12.740Z,99646.83
2023-10-30T11:01:42.664Z,99644.16
2023-10-30T11:04:12.863Z,99643.11
2023-10-30T11:06:46.862Z,99645.47
2023-10-30T11:09:25.781Z,99646.65
2023-10-30T11:11:57.297Z,99649.55
2023-10-30T11:14:52.105Z,99654.50
2023-10-30T11:17:20.164Z,99647.58
2023-10-30T11:19:48.558Z,99639.85
2023-10-30T11:22:40.140Z,99637.20
2023-10-30T11:25:45.307Z,99643.33
2023-10-30T11:28:13.372Z,99637.45
2023-10-30T11:30:43.751Z,99633.30
2023-10-30T11:33:20.050Z,99630.77
2023-10-30T11:36:11.991Z,99626.20
2023-10-30T11:39:05.144Z,99624.23
2023-10-30T11:41:37.396Z,99614.47
2023-10-30T11:44:09.514Z,99609.60
2023-10-30T11:46:40.047Z,99600.66
2023-10-30T11:49:15.655Z,99595.00
2023-10-30T11:51:47.986Z,99591.85
2023-10-30T11:54:33.508Z,99585.67
2023-10-30T11:57:02.089Z,99587.44
2023-10-30T11:59:31.595Z,99587.44
2023-10-30T12:02:00.096Z,99585.68
2023-10-30T12:04:28.872Z,99585.35
2023-10-30T12:06:57.100Z,99581.17
2023-10-30T12:09:27.260Z,99577.88
2023-10-30T12:11:57.119Z,99575.95
2023-10-30T12:14:25.664Z,99572.40
2023-10-30T12:16:53.877Z,99573.77
2023-10-30T12:19:25.509Z,99572.35
2023-10-30T12:21:53.877Z,99565.02
2023-10-30T12:24:26.363Z,99563.09
2023-10-30T12:26:54.589Z,99562.21
2023-10-30T12:29:23.879Z,99566.09
2023-10-30T12:32:08.348Z,99561.40
2023-10-30T12:34:39.893Z,99558.22
2023-10-30T12:37:26.506Z,99554.80
2023-10-30T12:40:05.273Z,99549.98
2023-10-30T12:42:38.050Z,99542.89
2023-10-30T12:45:10.685Z,99545.32
2023-10-30T12:47:47.581Z,99546.50
2023-10-30T12:50:16.860Z,99542.91
2023-10-30T12:52:45.140Z,99545.73
2023-10-30T12:55:14.769Z,99544.38
2023-10-30T12:57:43.372Z,99543.67
2023-10-30T13:00:12.714Z,99544.21
2023-10-30T13:02:41.545Z,99539.09
2023-10-30T13:05:13.417Z,99532.98
2023-10-30T13:07:42.348Z,99520.64
2023-10-30T13:10:10.626Z,99521.70
2023-10-30T13:12:38.750Z,99515.86
2023-10-30T13:15:07.688Z,99508.66
2023-10-30T13:17:35.967Z,99505.13
2023-10-30T13:20:07.760Z,99510.02
2023-10-30T13:22:36.099Z,99510.13
2023-10-30T13:25:08.560Z,99509.66
2023-10-30T13:27:36.997Z,99506.16
2023-10-30T13:30:05.863Z,99501.55
2023-10-30T13:32:34.590Z,99498.30
2023-10-30T13:35:03.202Z,99496.48
2023-10-30T13:37:31.484Z,99502.20
2023-10-30T13:39:59.915Z,99494.85
2023-10-30T13:42:28.139Z,99489.03
2023-10-30T13:44:56.610Z,99487.80
2023-10-30T13:47:24.786Z,99486.18
2023-10-30T13:49:53.906Z,99483.67
2023-10-30T13:52:22.061Z,99483.05
2023-10-30T13:54:52.146Z,99482.34
2023-10-30T13:57:23.874Z,99487.21
2023-10-30T13:59:52.100Z,99489.52
2023-10-30T14:02:20.236Z,99489.32
2023-10-30T14:04:50.620Z,99490.41
2023-10-30T14:07:20.860Z,99488.52
2023-10-30T14:09:49.404Z,99494.09
2023-10-30T14:12:19.984Z,99494.88
2023-10-30T14:14:48.200Z,99498.73
2023-10-30T14:17:16.574Z,99503.27
2023-10-30T14:19:44.744Z,99511.84
2023-10-30T14:22:13.044Z,99519.73
2023-10-30T14:24:41.452Z,99520.15
2023-10-30T14:27:09.679Z,99518.33
2023-10-30T14:29:38.163Z,99516.76
2023-10-30T14:32:06.786Z,99511.58
2023-10-30T14:34:36.956Z,99510.60
2023-10-30T14:37:06.366Z,99516.27
2023-10-30T14:39:35.502Z,99510.73
2023-10-30T14:42:04.148Z,99512.04
2023-10-30T14:44:32.216Z,99515.09
2023-10-30T14:47:00.388Z,99511.02
2023-10-30T14:49:28.763Z,99506.23
2023-10-30T14:51:57.042Z,99498.52
2023-10-30T14:54:25.123Z,99489.95
2023-10-30T14:56:53.378Z,99483.35
2023-10-30T14:59:21.653Z,99483.65
2023-10-30T15:01:49.755Z,99480.73
2023-10-30T15:04:18.203Z,99472.52
2023-10-30T15:06:46.913Z,99470.18
2023-10-30T15:09:17.621Z,99470.12
2023-10-30T15:11:45.802Z,99463.97
2023-10-30T15:14:14.086Z,99457.86
2023-10-30T15:16:42.266Z,99460.52
2023-10-30T15:19:11.624Z,99459.85
2023-10-30T15:21:39.825Z,99464.63
2023-10-30T15:24:08.653Z,99467.63
2023-10-30T15:26:37.179Z,99464.80
2023-10-30T15:29:05.360Z,99468.80
2023-10-30T15:31:33.626Z,99465.18
2023-10-30T15:34:01.775Z,99462.95
2023-10-30T15:36:30.493Z,99458.89
2023-10-30T15:38:58.767Z,99460.84
2023-10-30T15:41:26.936Z,99459.64
2023-10-30T15:43:55.307Z,99458.48
2023-10-30T15:46:23.629Z,99452.05
2023-10-30T15:48:51.976Z,99448.27
2023-10-30T15:51:20.143Z,99444.41
2023-10-30T15:58:55.517Z,99431.81
2023-10-30T16:01:23.626Z,99427.17
2023-10-30T16:03:52.444Z,99428.33
2023-10-30T16:06:20.900Z,99421.42
2023-10-30T16:08:51.136Z,99419.09
2023-10-30T16:13:50.487Z,99413.10
2023-10-30T16:16:19.034Z,99414.92
2023-10-30T16:21:18.575Z,99407.96
2023-10-30T16:23:46.857Z,99399.33
2023-10-30T16:26:15.033Z,99393.00
2023-10-30T16:28:43.343Z,99395.11
2023-10-30T16:31:11.713Z,99396.14
2023-10-30T16:33:39.854Z,99390.02
2023-10-30T16:36:08.337Z,99388.02
2023-10-30T16:38:36.513Z,99385.53
2023-10-30T16:41:04.902Z,99382.05
2023-10-30T16:43:33.193Z,99379.73
2023-10-30T16:46:01.243Z,99382.55
2023-10-30T16:48:29.621Z,99390.06
2023-10-30T16:50:57.880Z,99395.81
2023-10-30T16:53:26.154Z,99396.20
2023-10-30T16:55:54.353Z,99391.11
2023-10-30T16:58:22.549Z,99389.29
2023-10-30T17:00:52.847Z,99394.98
2023-10-30T17:03:21.190Z,99392.23
2023-10-30T17:05:50.398Z,99386.97
2023-10-30T17:08:18.578Z,99387.05
2023-10-30T17:10:48.782Z,99387.65
2023-10-30T17:13:16.964Z,99385.16
2023-10-30T17:15:45.238Z,99387.48
2023-10-30T17:18:13.612Z,99393.14
2023-10-30T17:20:41.889Z,99379.30
2023-10-30T17:23:10.277Z,99373.77
2023-10-30T17:25:38.476Z,99367.77
2023-10-30T17:28:06.608Z,99374.79
2023-10-30T17:30:34.890Z,99375.50
2023-10-30T17:33:03.127Z,99372.50
2023-10-30T17:35:31.642Z,99370.56
2023-10-30T17:38:00.787Z,99366.00
2023-10-30T17:40:29.029Z,99368.27
2023-10-30T17:42:57.389Z,99372.65
2023-10-30T17:45:26.277Z,99367.78
2023-10-30T17:47:54.350Z,99357.48
2023-10-30T17:50:22.943Z,99348.51
2023-10-30T17:52:51.261Z,99344.52
2023-10-30T17:55:19.623Z,99340.55
2023-10-30T17:57:48.066Z,99341.34
2023-10-30T18:00:16.337Z,99337.77
2023-10-30T18:02:44.636Z,99331.73
2023-10-30T18:05:13.090Z,99328.59
2023-10-30T18:07:41.195Z,99327.24
2023-10-30T18:10:09.654Z,99320.72
2023-10-30T18:12:37.841Z,99324.13
2023-10-30T18:15:07.500Z,99317.55
2023-10-30T18:17:35.835Z,99311.92
2023-10-30T18:20:04.739Z,99304.08
2023-10-30T18:22:32.989Z,99305.12
2023-10-30T18:25:01.241Z,99304.10
2023-10-30T18:27:32.827Z,99301.21
2023-10-30T18:30:00.959Z,99297.11
2023-10-30T18:32:29.422Z,99298.15
2023-10-30T18:34:57.873Z,99290.71
2023-10-30T18:37:26.099Z,99286.85
2023-10-30T18:39:54.777Z,99277.22
2023-10-30T18:42:23.152Z,99266.71
2023-10-30T18:44:51.396Z,99260.52
2023-10-30T18:47:19.873Z,99249.77
2023-10-30T18:49:48.455Z,99244.56
2023-10-30T18:52:16.867Z,99237.67
2023-10-30T18:54:44.950Z,99230.08
2023-10-30T18:57:13.118Z,99229.76
2023-10-30T18:59:43.060Z,99223.57
2023-10-30T19:02:11.653Z,99215.80
2023-10-30T19:04:40.573Z,99214.91
2023-10-30T19:07:08.871Z,99215.20
2023-10-30T19:09:37.044Z,99212.36
2023-10-30T19:12:05.751Z,99213.98
2023-10-30T19:14:33.941Z,99213.31
2023-10-30T19:17:02.539Z,99214.98
2023-10-30T19:19:30.776Z,99214.55
2023-10-30T19:21:59.969Z,99212.95
2023-10-30T19:24:28.127Z,99205.99
2023-10-30T19:26:56.302Z,99200.45
2023-10-30T19:29:24.882Z,99196.10
2023-10-30T19:31:53.261Z,99192.20
2023-10-30T19:34:21.562Z,99193.99
2023-10-30T19:36:50.524Z,99179.59
2023-10-30T19:39:19.015Z,99174.16
2023-10-30T19:41:47.181Z,99168.95
2023-10-30T19:44:15.669Z,99172.15
2023-10-30T19:46:43.878Z,99162.92
2023-10-30T19:49:12.114Z,99159.14
2023-10-30T19:51:43.507Z,99147.29
2023-10-30T19:54:14.388Z,99137.41
2023-10-30T19:56:42.867Z,99135.37
2023-10-30T19:59:11.153Z,99137.30
2023-10-30T20:01:40.867Z,99125.24
2023-10-30T20:04:09.739Z,99124.20
2023-10-30T20:06:37.919Z,99120.79
2023-10-30T20:09:06.085Z,99118.96
2023-10-30T20:11:34.701Z,99112.27
2023-10-30T20:14:02.950Z,99106.73
2023-10-30T20:16:31.035Z,99098.83
2023-10-30T20:18:59.391Z,99095.19
2023-10-30T20:21:27.570Z,99098.20
2023-10-30T20:23:55.834Z,99088.37
2023-10-30T20:26:24.008Z,99078.52
2023-10-30T20:28:52.214Z,99078.70
2023-10-30T20:31:21.261Z,99069.28
2023-10-30T20:33:49.449Z,99073.29
2023-10-30T20:36:17.621Z,99074.33
2023-10-30T20:38:45.897Z,99072.80
2023-10-30T20:41:16.237Z,99071.21
2023-10-30T20:43:44.331Z,99065.21
2023-10-30T20:46:16.355Z,99054.84
2023-10-30T20:48:44.545Z,99051.16
2023-10-30T20:51:12.704Z,99045.95
2023-10-30T20:53:40.869Z,99042.02
2023-10-30T20:56:09.047Z,99030.33
2023-10-30T20:58:37.121Z,99028.70
2023-10-30T21:01:05.290Z,99030.33
2023-10-30T21:03:33.456Z,99034.87
2023-10-30T21:06:01.703Z,99035.77
2023-10-30T21:08:30.007Z,99026.57
2023-10-30T21:10:58.565Z,99015.39
2023-10-30T21:13:28.167Z,99006.60
2023-10-30T21:15:56.371Z,98998.55
2023-10-30T21:18:24.442Z,98993.34
2023-10-30T21:20:53.429Z,98993.08
2023-10-30T21:23:21.702Z,98988.08
2023-10-30T21:25:50.968Z,98985.61
2023-10-30T21:28:19.175Z,98977.25
2023-10-30T21:30:47.617Z,98973.94
2023-10-30T21:33:15.826Z,98973.88
2023-10-30T21:35:44.001Z,98970.67
2023-10-30T21:38:14.535Z,98960.79
2023-10-30T21:40:44.422Z,98956.42
2023-10-30T21:43:12.613Z,98947.75
2023-10-30T21:45:41.169Z,98944.46
2023-10-30T21:48:09.399Z,98947.63
2023-10-30T21:50:37.541Z,98942.48
2023-10-30T21:53:05.764Z,98937.02
2023-10-30T21:55:34.122Z,98927.35
2023-10-30T21:58:02.260Z,98922.63
2023-10-30T22:00:30.330Z,98924.27
2023-10-30T22:02:58.458Z,98923.00
2023-10-30T22:05:26.883Z,98923.10
2023-10-30T22:07:54.955Z,98914.45
2023-10-30T22:10:25.689Z,98908.77
2023-10-30T22:12:53.859Z,98902.55
2023-10-30T22:15:23.560Z,98899.33
2023-10-30T22:17:51.870Z,98894.80
2023-10-30T22:20:20.216Z,98888.16
2023-10-30T22:22:48.316Z,98882.92
2023-10-30T22:25:16.561Z,98880.05
2023-10-30T22:27:44.633Z,98873.32
2023-10-30T22:30:13.658Z,98869.73
2023-10-30T22:32:42.899Z,98861.26
2023-10-30T22:35:11.343Z,98851.30
2023-10-30T22:37:42.121Z,98848.82
2023-10-30T22:40:10.927Z,98841.53
2023-10-30T22:42:39.405Z,98832.70
2023-10-30T22:45:09.475Z,98826.77
2023-10-30T22:47:37.627Z,98819.02
2023-10-30T22:50:06.982Z,98810.25
2023-10-30T22:52:35.309Z,98815.83
2023-10-30T22:55:04.459Z,98813.61
2023-10-30T22:57:32.636Z,98820.55
2023-10-30T23:00:00.920Z,98815.27
2023-10-30T23:02:29.384Z,98809.58
2023-10-30T23:04:58.911Z,98802.48
2023-10-30T23:07:27.680Z,98787.92
2023-10-30T23:09:55.863Z,98782.13
2023-10-30T23:12:24.058Z,98774.50
2023-10-30T23:14:52.199Z,98767.20
2023-10-30T23:17:20.368Z,98755.88
2023-10-30T23:19:48.645Z,98749.66
2023-10-30T23:22:17.842Z,98749.66
2023-10-30T23:24:46.013Z,98736.30
2023-10-30T23:27:15.925Z,98734.63
2023-10-30T23:29:44.119Z,98727.91
2023-10-30T23:32:12.287Z,98721.36
2023-10-30T23:34:40.476Z,98715.36
2023-10-30T23:37:08.630Z,98712.28
2023-10-30T23:39:37.323Z,98715.52
2023-10-30T23:42:05.884Z,98712.75
2023-10-30T23:44:33.950Z,98704.49
2023-10-30T23:47:02.204Z,98694.35
2023-10-30T23:49:30.409Z,98691.27
2023-10-30T23:51:58.468Z,98692.19
2023-10-30T23:54:30.921Z,98686.00
2023-10-30T23:57:01.885Z,98678.59
2023-10-30T23:59:30.048Z,98679.86
